NAE weather

Natitingou Airport
Natitingou, Atakora, Benin

Public forecast

Using degrees Celsius for public forecast. Weather courtesy of forecast.io.

Closest aviation weather report (METAR) to Natitingou Airport

Report is more than 2 hours old.

Closest report is Niamtougou International Airport, 39.9 nm (73.9 km) SSW. Retrieved 2020/06/07 03:00 UTC (3 hours ago):

DXNG 070300Z 18004KT 9999 TSRA BKN006 FEW016CB 21/20 Q1015

Closest aviation forecast (TAF) to Natitingou Airport

Closest forecast is Niamtougou International Airport, 39.9 nm (73.9 km) SSW. Retrieved 2020-06-07 00:21 UTC (5 hours ago):

TAF DXNG 062300Z 0700/0724 VRB05KT 9999 TS BKN006 FEW016CB TEMPO 0700/0705 4000 TSRA BECMG 0705/0707 NSW SCT006